Time;durP1;ratioP1;P1;durP2;ratioP2;P2;SDS_P1;SDS_P2;PMS_P1;PMS_P2;Temp;Humidity;BMP_temperature;BMP_pressure;BME280_temperature;BME280_humidity;BME280_pressure;Samples;Min_cycle;Max_cycle;Signal;HPM_P1;HPM_P2
2023/03/11 00:00:33;;;;;;;13.57;1.93;;;1.10;99.90;;;;;;4994526;28;20035;-81
2023/03/11 00:03:00;;;;;;;12.10;1.97;;;1.10;99.90;;;;;;4978770;28;20026;-81
2023/03/11 00:05:35;;;;;;;8.53;1.37;;;1.10;99.90;;;;;;4996694;28;20026;-81
2023/03/11 00:08:01;;;;;;;5.47;1.67;;;1.10;99.90;;;;;;4996119;28;20026;-81
2023/03/11 00:10:30;;;;;;;7.93;1.30;;;1.10;99.90;;;;;;4962936;28;20117;-81
2023/03/11 00:12:57;;;;;;;10.30;1.67;;;1.00;99.90;;;;;;4996000;28;20081;-81
2023/03/11 00:15:23;;;;;;;7.13;2.03;;;1.00;99.90;;;;;;4996509;28;20466;-80
2023/03/11 00:17:49;;;;;;;8.30;1.27;;;1.00;99.90;;;;;;4996385;28;20037;-80
2023/03/11 00:20:28;;;;;;;6.40;1.20;;;1.00;99.90;;;;;;4978561;28;20034;-80
2023/03/11 00:22:54;;;;;;;6.87;1.20;;;1.10;99.90;;;;;;4995677;28;20030;-80
2023/03/11 00:25:22;;;;;;;11.47;2.00;;;1.10;99.90;;;;;;4995997;28;20026;-80
2023/03/11 00:27:48;;;;;;;8.70;1.80;;;1.10;99.90;;;;;;4995229;28;20045;-81
2023/03/11 00:30:16;;;;;;;8.33;1.23;;;1.10;99.90;;;;;;4978203;28;20076;-82
2023/03/11 00:32:42;;;;;;;11.63;1.57;;;1.20;99.90;;;;;;4978252;28;20030;-81
2023/03/11 00:35:13;;;;;;;11.43;1.30;;;1.10;99.90;;;;;;4995589;28;20031;-81
2023/03/11 00:37:38;;;;;;;4.77;0.87;;;1.10;99.90;;;;;;4996259;28;20452;-82
2023/03/11 00:40:07;;;;;;;5.83;1.03;;;1.00;99.90;;;;;;4961074;28;20068;-81
2023/03/11 00:42:33;;;;;;;9.53;2.10;;;1.00;99.90;;;;;;4995532;28;20108;-80
2023/03/11 00:44:59;;;;;;;8.47;1.10;;;1.00;99.90;;;;;;4978112;28;20030;-80
2023/03/11 00:47:25;;;;;;;4.23;0.83;;;1.00;99.90;;;;;;4995951;28;20471;-80
2023/03/11 00:49:50;;;;;;;7.80;1.17;;;0.90;99.90;;;;;;4995783;28;20414;-80
2023/03/11 00:52:16;;;;;;;7.13;0.97;;;0.90;99.90;;;;;;4978203;28;20026;-82
2023/03/11 00:54:41;;;;;;;6.70;0.90;;;1.00;99.90;;;;;;4977739;28;20034;-81
2023/03/11 00:57:07;;;;;;;6.30;1.00;;;0.90;99.90;;;;;;4978129;28;20466;-81
2023/03/11 00:59:34;;;;;;;4.37;1.10;;;0.90;99.90;;;;;;4978043;28;20058;-81
2023/03/11 01:01:59;;;;;;;7.90;1.50;;;0.90;99.90;;;;;;4977564;28;20116;-81
2023/03/11 01:04:25;;;;;;;10.43;1.00;;;0.80;99.90;;;;;;4961940;28;20478;-80
2023/03/11 01:06:51;;;;;;;9.93;1.17;;;0.90;99.90;;;;;;4977705;28;20104;-81
2023/03/11 01:09:17;;;;;;;4.93;0.87;;;1.00;99.90;;;;;;4995011;28;20120;-81
2023/03/11 01:11:42;;;;;;;8.20;1.10;;;0.80;99.90;;;;;;4995343;28;20390;-80
2023/03/11 01:14:08;;;;;;;5.83;0.97;;;0.70;99.90;;;;;;4961943;28;20022;-81
2023/03/11 01:16:34;;;;;;;9.70;1.10;;;0.80;99.90;;;;;;4977898;28;20558;-82
2023/03/11 01:18:59;;;;;;;6.00;1.40;;;0.80;99.90;;;;;;4995019;28;20034;-82
2023/03/11 01:21:25;;;;;;;8.00;1.03;;;0.70;99.90;;;;;;4977280;28;20478;-82
2023/03/11 01:23:51;;;;;;;7.37;1.13;;;0.70;99.90;;;;;;4977332;28;20100;-82
2023/03/11 01:26:16;;;;;;;8.67;1.43;;;0.70;99.90;;;;;;4977598;28;20030;-82
2023/03/11 01:28:42;;;;;;;5.33;1.00;;;0.70;99.90;;;;;;4977255;28;20030;-82
2023/03/11 01:31:11;;;;;;;7.67;1.10;;;0.60;99.90;;;;;;4993313;28;20113;-81
2023/03/11 01:33:36;;;;;;;4.87;1.03;;;0.70;99.90;;;;;;4993206;28;20395;-82
2023/03/11 01:36:02;;;;;;;4.10;0.93;;;0.60;99.90;;;;;;4993542;28;20039;-82
2023/03/11 01:38:28;;;;;;;4.07;0.80;;;0.60;99.90;;;;;;4977340;28;20039;-82
2023/03/11 01:40:53;;;;;;;4.33;0.80;;;0.60;99.90;;;;;;4977348;28;20047;-81
2023/03/11 01:43:45;;;;;;;4.73;1.20;;;0.60;99.90;;;;;;4977197;28;20398;-82
2023/03/11 01:46:15;;;;;;;3.43;1.00;;;0.50;99.90;;;;;;4976991;28;20030;-81
2023/03/11 01:48:53;;;;;;;8.30;1.00;;;0.60;99.90;;;;;;4994734;28;20066;-81
2023/03/11 01:51:40;;;;;;;6.83;0.93;;;0.60;99.90;;;;;;4977051;28;20026;-82
2023/03/11 01:54:13;;;;;;;5.33;1.00;;;0.50;99.90;;;;;;4993083;28;20053;-81
2023/03/11 01:56:41;;;;;;;6.82;1.20;;;0.50;99.90;;;;;;4977185;28;20076;-82
2023/03/11 01:59:10;;;;;;;7.00;0.90;;;0.50;99.90;;;;;;4994180;28;20030;-81
2023/03/11 02:01:42;;;;;;;5.60;1.00;;;0.50;99.90;;;;;;4993753;28;20125;-81
2023/03/11 02:04:08;;;;;;;9.87;1.17;;;0.50;99.90;;;;;;4994367;28;20105;-81
2023/03/11 02:06:34;;;;;;;2.57;0.70;;;0.50;99.90;;;;;;4976949;28;20495;-81
2023/03/11 02:09:00;;;;;;;4.80;0.73;;;0.60;99.90;;;;;;4993352;28;20062;-81
2023/03/11 02:11:29;;;;;;;6.17;1.37;;;0.50;99.90;;;;;;4994219;28;20022;-81
2023/03/11 02:14:00;;;;;;;8.50;0.90;;;0.60;99.90;;;;;;4976321;28;20121;-81
2023/03/11 02:16:26;;;;;;;3.87;1.00;;;0.60;99.90;;;;;;4994088;28;20022;-80
2023/03/11 02:18:51;;;;;;;5.33;1.00;;;0.60;99.90;;;;;;4960855;28;20043;-80
2023/03/11 02:21:30;;;;;;;5.50;0.80;;;0.60;99.90;;;;;;4993296;28;20050;-80
2023/03/11 02:24:04;;;;;;;7.63;0.97;;;0.70;99.90;;;;;;4993660;28;20101;-80
2023/03/11 02:26:29;;;;;;;4.07;0.95;;;0.80;99.90;;;;;;4993777;28;20031;-80
2023/03/11 02:28:56;;;;;;;3.53;0.80;;;0.70;99.90;;;;;;4993892;28;20379;-80
2023/03/11 02:31:24;;;;;;;4.20;0.80;;;0.80;99.90;;;;;;4976400;28;20033;-81
2023/03/11 02:33:53;;;;;;;4.67;0.83;;;0.80;99.90;;;;;;4993900;28;20050;-80
2023/03/11 02:36:36;;;;;;;8.30;0.90;;;0.80;99.90;;;;;;4976308;28;20482;-81
2023/03/11 02:39:03;;;;;;;4.63;0.80;;;0.80;99.90;;;;;;4992288;28;20046;-81
2023/03/11 02:41:31;;;;;;;6.63;0.80;;;0.90;99.90;;;;;;4992473;28;20114;-80
2023/03/11 02:43:58;;;;;;;12.30;1.00;;;0.90;99.90;;;;;;4993841;28;20068;-80
2023/03/11 02:46:24;;;;;;;5.27;0.90;;;0.90;99.90;;;;;;4993675;28;20085;-81
2023/03/11 02:48:51;;;;;;;2.63;0.80;;;1.00;99.90;;;;;;4976409;28;20497;-81
2023/03/11 02:51:17;;;;;;;8.23;1.63;;;1.00;99.90;;;;;;4976019;28;20035;-81
2023/03/11 02:53:50;;;;;;;6.03;0.90;;;1.00;99.90;;;;;;4976040;28;20026;-81
2023/03/11 02:56:15;;;;;;;6.67;0.97;;;1.10;99.90;;;;;;4993169;28;20378;-82
2023/03/11 02:58:41;;;;;;;6.53;1.00;;;1.00;99.90;;;;;;4976248;28;20046;-81
2023/03/11 03:01:07;;;;;;;4.77;0.80;;;1.00;99.90;;;;;;4975654;28;20541;-81
2023/03/11 03:03:33;;;;;;;5.83;0.90;;;1.10;99.90;;;;;;4978336;28;20121;-81
2023/03/11 03:05:58;;;;;;;5.77;0.93;;;1.20;99.90;;;;;;4980226;28;20038;-81
2023/03/11 03:08:24;;;;;;;3.17;0.77;;;1.10;99.90;;;;;;4980089;28;20117;-81
2023/03/11 03:10:49;;;;;;;4.33;0.60;;;1.10;99.90;;;;;;4996484;28;20105;-81
2023/03/11 03:13:15;;;;;;;4.47;0.60;;;1.20;99.90;;;;;;4980232;28;20041;-81
2023/03/11 03:15:41;;;;;;;5.57;0.83;;;1.20;99.90;;;;;;4964192;28;20422;-82
2023/03/11 03:18:06;;;;;;;3.13;0.73;;;1.20;99.90;;;;;;4997009;28;20049;-81
2023/03/11 03:20:32;;;;;;;6.47;0.97;;;1.20;99.90;;;;;;4996944;28;20493;-81
2023/03/11 03:22:58;;;;;;;5.93;0.60;;;1.30;99.90;;;;;;4980071;28;20397;-81
2023/03/11 03:25:23;;;;;;;2.87;0.50;;;1.20;99.90;;;;;;4963648;28;20546;-81
2023/03/11 03:27:49;;;;;;;3.70;0.60;;;1.30;99.90;;;;;;4979955;28;20478;-81
2023/03/11 03:30:15;;;;;;;5.03;1.00;;;1.40;99.90;;;;;;4996835;28;20026;-81
2023/03/11 03:32:40;;;;;;;6.83;1.20;;;1.20;99.90;;;;;;4979722;28;20041;-81
2023/03/11 03:35:07;;;;;;;4.03;0.60;;;1.20;99.90;;;;;;4995710;28;20081;-81
2023/03/11 03:37:34;;;;;;;3.30;0.70;;;1.20;99.90;;;;;;4996986;28;20037;-81
2023/03/11 03:40:01;;;;;;;8.73;0.70;;;1.30;99.90;;;;;;4979292;28;20486;-82
2023/03/11 03:42:27;;;;;;;7.83;1.17;;;1.20;99.90;;;;;;4979504;28;20034;-82
2023/03/11 03:44:52;;;;;;;5.83;0.70;;;1.20;99.90;;;;;;4995783;28;20022;-82
2023/03/11 03:47:19;;;;;;;4.37;1.00;;;1.10;99.90;;;;;;4979383;28;20169;-81
2023/03/11 03:49:45;;;;;;;3.90;0.70;;;1.10;99.90;;;;;;4996614;28;20034;-81
2023/03/11 03:52:10;;;;;;;1.90;0.50;;;1.10;99.90;;;;;;4995890;28;20031;-81
2023/03/11 03:54:36;;;;;;;7.93;0.87;;;1.10;99.90;;;;;;4996761;28;20036;-81
2023/03/11 03:57:03;;;;;;;6.57;0.80;;;1.00;99.90;;;;;;4996515;28;20040;-81
2023/03/11 03:59:29;;;;;;;5.47;0.60;;;1.00;99.90;;;;;;4996476;28;20045;-81
2023/03/11 04:01:54;;;;;;;3.10;0.57;;;1.00;99.90;;;;;;4996076;28;20030;-81
2023/03/11 04:04:20;;;;;;;3.00;0.77;;;1.00;99.90;;;;;;4978905;28;20031;-81
2023/03/11 04:06:46;;;;;;;4.37;0.70;;;1.00;99.90;;;;;;4995208;28;20085;-81
2023/03/11 04:09:12;;;;;;;2.50;0.70;;;1.00;99.90;;;;;;4978709;28;20022;-81
2023/03/11 04:11:38;;;;;;;4.43;0.80;;;0.90;99.90;;;;;;4978901;28;20096;-81
2023/03/11 04:14:04;;;;;;;3.50;0.70;;;0.90;99.90;;;;;;4978084;28;20034;-81
2023/03/11 04:16:30;;;;;;;5.87;0.83;;;0.90;99.90;;;;;;4995258;28;20501;-81
2023/03/11 04:18:56;;;;;;;3.87;0.90;;;1.00;99.90;;;;;;4995919;28;20042;-81
2023/03/11 04:21:21;;;;;;;6.23;1.10;;;0.90;99.90;;;;;;4995268;28;20082;-81
2023/03/11 04:23:47;;;;;;;3.33;0.73;;;0.90;99.90;;;;;;4978789;28;20466;-81
2023/03/11 04:26:13;;;;;;;2.67;0.60;;;1.00;99.90;;;;;;4995032;28;20364;-82
2023/03/11 04:28:39;;;;;;;3.53;0.70;;;0.80;99.90;;;;;;4978708;28;20495;-81
2023/03/11 04:31:04;;;;;;;3.80;0.60;;;0.80;99.90;;;;;;4995414;28;20475;-81
2023/03/11 04:33:31;;;;;;;1.90;0.40;;;0.90;99.90;;;;;;4994643;28;20077;-80
2023/03/11 04:35:57;;;;;;;2.30;0.77;;;0.80;99.90;;;;;;4995719;28;20101;-80
2023/03/11 04:38:22;;;;;;;4.30;0.67;;;0.80;99.90;;;;;;4978645;28;20461;-79
2023/03/11 04:40:48;;;;;;;4.50;0.97;;;0.80;99.90;;;;;;4995700;28;20113;-80
2023/03/11 04:43:14;;;;;;;5.47;0.70;;;0.80;99.90;;;;;;4978390;28;20026;-80
2023/03/11 04:45:41;;;;;;;2.63;0.60;;;0.80;99.90;;;;;;4978364;28;20475;-80
2023/03/11 04:48:07;;;;;;;4.73;0.70;;;0.80;99.90;;;;;;4994601;28;20034;-80
2023/03/11 04:50:33;;;;;;;3.10;0.60;;;0.80;99.90;;;;;;4994429;28;20113;-80
2023/03/11 04:52:59;;;;;;;2.03;0.77;;;0.80;99.90;;;;;;4978176;28;20062;-80
2023/03/11 04:55:24;;;;;;;5.03;0.93;;;0.80;99.90;;;;;;4994255;28;20027;-80
2023/03/11 04:57:50;;;;;;;3.80;0.60;;;0.80;99.90;;;;;;4977878;28;20038;-80
2023/03/11 05:00:18;;;;;;;3.37;0.60;;;0.80;99.90;;;;;;4994963;28;20042;-80
2023/03/11 05:02:44;;;;;;;3.33;0.63;;;0.80;99.90;;;;;;4995026;28;20432;-80
2023/03/11 05:05:10;;;;;;;4.97;0.70;;;0.80;99.90;;;;;;4962226;28;20053;-80
2023/03/11 05:07:36;;;;;;;4.70;0.70;;;0.80;99.90;;;;;;4994119;28;20497;-81
2023/03/11 05:10:03;;;;;;;2.07;0.50;;;0.80;99.90;;;;;;4978027;28;20026;-81
2023/03/11 05:12:28;;;;;;;7.60;0.70;;;0.80;99.90;;;;;;4994337;28;20093;-81
2023/03/11 05:14:54;;;;;;;6.17;0.60;;;0.80;99.90;;;;;;4995069;28;20035;-80
2023/03/11 05:17:20;;;;;;;4.50;0.57;;;0.80;99.90;;;;;;4977615;28;20074;-80
2023/03/11 05:19:46;;;;;;;4.60;0.50;;;0.80;99.90;;;;;;4993900;28;20042;-80
2023/03/11 05:22:12;;;;;;;2.63;0.60;;;0.70;99.90;;;;;;4977671;28;20030;-80
2023/03/11 05:24:38;;;;;;;1.90;0.40;;;0.70;99.90;;;;;;4995196;28;20039;-80
2023/03/11 05:27:04;;;;;;;2.13;0.50;;;0.70;99.90;;;;;;4993824;28;20033;-80
2023/03/11 05:29:30;;;;;;;1.37;0.50;;;0.70;99.90;;;;;;4994855;28;20030;-80
2023/03/11 05:31:55;;;;;;;5.40;1.30;;;0.70;99.90;;;;;;4993571;28;20032;-81
2023/03/11 05:34:21;;;;;;;3.60;0.63;;;0.60;99.90;;;;;;4977130;28;20062;-80
2023/03/11 05:36:47;;;;;;;1.70;0.60;;;0.60;99.90;;;;;;4993818;28;20402;-81
2023/03/11 05:39:13;;;;;;;3.27;0.60;;;0.50;99.90;;;;;;4994620;28;20046;-81
2023/03/11 05:41:39;;;;;;;3.03;0.60;;;0.50;99.90;;;;;;4994793;28;20487;-80
2023/03/11 05:44:05;;;;;;;6.33;1.47;;;0.50;99.90;;;;;;4976761;28;20101;-80
2023/03/11 05:46:31;;;;;;;3.73;0.70;;;0.40;99.90;;;;;;4994974;28;20037;-80
2023/03/11 05:48:58;;;;;;;3.07;0.80;;;0.40;99.90;;;;;;4962066;28;20546;-80
2023/03/11 05:51:24;;;;;;;4.97;0.60;;;0.40;99.90;;;;;;4993394;28;20030;-80
2023/03/11 05:53:50;;;;;;;2.27;0.67;;;0.30;99.90;;;;;;4992368;28;20029;-80
2023/03/11 05:56:18;;;;;;;3.67;0.60;;;0.30;99.90;;;;;;4989440;28;20087;-81
2023/03/11 05:58:44;;;;;;;3.67;0.70;;;0.20;99.90;;;;;;5007388;28;20038;-81
2023/03/11 06:01:12;;;;;;;6.17;0.90;;;0.20;99.90;;;;;;4991679;28;20041;-80
2023/03/11 06:03:39;;;;;;;7.23;0.80;;;0.20;99.90;;;;;;4992599;28;20026;-80
2023/03/11 06:06:07;;;;;;;2.70;0.57;;;0.20;99.90;;;;;;4976804;28;20041;-80
2023/03/11 06:08:34;;;;;;;4.97;0.70;;;0.10;99.90;;;;;;4994306;28;20022;-80
2023/03/11 06:11:05;;;;;;;2.37;0.63;;;0.10;99.90;;;;;;4994234;28;20117;-80
2023/03/11 06:13:31;;;;;;;4.17;0.53;;;0.10;99.90;;;;;;4994572;28;20028;-80
2023/03/11 06:15:56;;;;;;;1.83;0.70;;;0.10;99.90;;;;;;4993908;28;20027;-80
2023/03/11 06:18:25;;;;;;;2.90;0.80;;;0.00;99.90;;;;;;4960608;28;20026;-80
2023/03/11 06:20:50;;;;;;;2.97;0.73;;;0.00;99.90;;;;;;4976490;28;20023;-80
2023/03/11 06:23:16;;;;;;;5.40;0.70;;;0.00;99.90;;;;;;4976631;28;20022;-80
2023/03/11 06:25:42;;;;;;;5.47;0.80;;;0.00;99.90;;;;;;4992955;28;20057;-80
2023/03/11 06:28:08;;;;;;;4.07;0.57;;;0.00;99.90;;;;;;4992825;28;20445;-80
2023/03/11 06:30:34;;;;;;;4.40;0.70;;;0.00;99.90;;;;;;4976179;28;20057;-81
2023/03/11 06:33:00;;;;;;;9.30;1.00;;;0.00;99.90;;;;;;4976559;28;20030;-80
2023/03/11 06:35:25;;;;;;;4.23;0.80;;;0.00;99.90;;;;;;4976233;28;20050;-79
2023/03/11 06:37:51;;;;;;;3.33;0.73;;;0.00;99.90;;;;;;5011722;28;20485;-81
2023/03/11 06:40:17;;;;;;;3.07;0.70;;;0.00;99.90;;;;;;5012883;28;20041;-81
2023/03/11 06:42:46;;;;;;;2.43;0.50;;;0.00;99.90;;;;;;5013702;28;20040;-80
2023/03/11 06:45:13;;;;;;;4.77;0.80;;;0.00;99.90;;;;;;4995092;28;20499;-80
2023/03/11 06:47:39;;;;;;;4.23;0.70;;;0.00;99.90;;;;;;4995394;28;20121;-81
2023/03/11 06:50:08;;;;;;;2.83;0.80;;;0.00;99.90;;;;;;4978333;28;20034;-80
2023/03/11 06:52:33;;;;;;;3.30;0.83;;;0.00;99.90;;;;;;4995441;28;20030;-80
2023/03/11 06:54:59;;;;;;;2.00;0.70;;;0.10;99.90;;;;;;4979547;28;20033;-80
2023/03/11 06:57:26;;;;;;;4.77;0.93;;;0.10;99.90;;;;;;4995623;28;20052;-81
2023/03/11 06:59:52;;;;;;;3.17;0.83;;;0.10;99.90;;;;;;4996129;28;20049;-81
2023/03/11 07:02:17;;;;;;;5.30;1.07;;;0.10;99.90;;;;;;4978849;28;20026;-81
2023/03/11 07:04:43;;;;;;;5.57;0.90;;;0.20;99.90;;;;;;4995248;28;20029;-80
2023/03/11 07:07:09;;;;;;;7.27;1.13;;;0.10;99.90;;;;;;4987954;28;20034;-81
2023/03/11 07:09:34;;;;;;;5.40;1.20;;;0.30;99.90;;;;;;4992282;28;20404;-81
2023/03/11 07:12:00;;;;;;;5.50;0.70;;;0.30;99.90;;;;;;4998193;28;20077;-81
2023/03/11 07:14:26;;;;;;;6.10;2.23;;;0.20;99.90;;;;;;4991104;28;20585;-82
2023/03/11 07:16:51;;;;;;;4.80;0.83;;;0.20;99.90;;;;;;4980343;28;20029;-82
2023/03/11 07:19:17;;;;;;;2.13;0.80;;;0.30;99.90;;;;;;4979173;28;20070;-82
2023/03/11 07:21:42;;;;;;;5.03;1.20;;;0.20;99.90;;;;;;5000050;28;20038;-82
2023/03/11 07:24:11;;;;;;;6.57;1.07;;;0.20;99.90;;;;;;4992875;28;20027;-82
2023/03/11 07:26:37;;;;;;;5.30;1.00;;;0.20;99.90;;;;;;4975613;28;20379;-83
2023/03/11 07:29:03;;;;;;;4.97;0.80;;;0.30;99.90;;;;;;4992424;28;20046;-82
2023/03/11 07:31:32;;;;;;;6.90;1.17;;;0.40;99.90;;;;;;5009453;28;20469;-81
2023/03/11 07:34:00;;;;;;;4.33;0.90;;;0.40;99.90;;;;;;4970956;28;20047;-82
2023/03/11 07:36:27;;;;;;;4.57;0.73;;;0.40;99.90;;;;;;4972429;28;20110;-81
2023/03/11 07:38:58;;;;;;;4.23;0.70;;;0.50;99.90;;;;;;4959150;28;20039;-81
2023/03/11 07:41:25;;;;;;;3.87;0.80;;;0.50;99.90;;;;;;4980535;28;20073;-81
2023/03/11 07:43:54;;;;;;;7.60;1.00;;;0.50;99.90;;;;;;4974854;28;20031;-81
2023/03/11 07:46:21;;;;;;;5.07;1.13;;;0.60;99.90;;;;;;4973546;28;20031;-81
2023/03/11 07:48:48;;;;;;;3.70;1.03;;;0.60;99.90;;;;;;4957145;28;20069;-80
2023/03/11 07:51:19;;;;;;;2.83;0.90;;;0.70;99.90;;;;;;4963030;28;20030;-81
2023/03/11 07:53:45;;;;;;;3.93;1.00;;;0.70;99.90;;;;;;4996821;28;20023;-81
2023/03/11 07:56:12;;;;;;;3.93;0.73;;;0.70;99.90;;;;;;4979342;28;20364;-81
2023/03/11 07:58:38;;;;;;;5.13;1.13;;;0.80;99.90;;;;;;4996860;28;20037;-82
2023/03/11 08:01:05;;;;;;;3.50;1.10;;;0.80;99.90;;;;;;4962420;28;20410;-81
2023/03/11 08:03:32;;;;;;;3.13;0.67;;;0.80;99.90;;;;;;4962805;28;20126;-81
2023/03/11 08:05:58;;;;;;;6.03;0.90;;;0.90;99.90;;;;;;4979120;28;20057;-80
2023/03/11 08:08:24;;;;;;;4.43;1.00;;;0.90;99.90;;;;;;4995970;28;20463;-79
2023/03/11 08:10:49;;;;;;;5.50;0.80;;;1.00;99.90;;;;;;4962535;28;20459;-79
2023/03/11 08:13:15;;;;;;;2.93;0.83;;;1.00;99.90;;;;;;4945247;28;20027;-80
2023/03/11 08:15:40;;;;;;;2.60;0.90;;;1.00;99.90;;;;;;4978688;28;20436;-80
2023/03/11 08:18:06;;;;;;;4.83;0.90;;;1.10;99.90;;;;;;4977903;28;20471;-80
2023/03/11 08:20:32;;;;;;;3.63;0.97;;;1.20;99.90;;;;;;4943317;28;20047;-80
2023/03/11 08:22:57;;;;;;;3.63;0.93;;;1.20;99.90;;;;;;4976751;28;20033;-80
2023/03/11 08:25:23;;;;;;;5.67;1.80;;;1.30;99.90;;;;;;4975371;28;20375;-80
2023/03/11 08:27:49;;;;;;;3.27;1.07;;;1.40;99.90;;;;;;4974959;28;20054;-80
2023/03/11 08:30:14;;;;;;;4.97;1.10;;;1.40;99.90;;;;;;4976378;28;20078;-81
2023/03/11 08:32:40;;;;;;;3.10;0.90;;;1.50;99.90;;;;;;4958377;28;20031;-80
2023/03/11 08:35:06;;;;;;;6.60;0.93;;;1.60;99.90;;;;;;4988481;28;20054;-79
2023/03/11 08:37:32;;;;;;;4.70;0.90;;;1.60;99.90;;;;;;4995387;28;20026;-80
2023/03/11 08:39:57;;;;;;;7.40;0.90;;;1.70;99.90;;;;;;4978289;28;20046;-81
2023/03/11 08:42:23;;;;;;;6.60;0.87;;;1.80;99.90;;;;;;4978494;28;20030;-81
2023/03/11 08:44:48;;;;;;;3.27;1.00;;;1.90;99.90;;;;;;4994681;28;20026;-81
2023/03/11 08:47:14;;;;;;;5.47;0.77;;;1.90;99.90;;;;;;4978288;28;20027;-81
2023/03/11 08:49:40;;;;;;;5.13;1.27;;;2.00;99.90;;;;;;4961808;28;20030;-80
2023/03/11 08:52:06;;;;;;;4.33;0.90;;;2.00;99.90;;;;;;4997663;28;20058;-80
2023/03/11 08:54:31;;;;;;;6.87;1.30;;;2.10;99.90;;;;;;4997411;28;20029;-80
2023/03/11 08:57:01;;;;;;;3.70;0.87;;;2.20;99.90;;;;;;4997298;28;20060;-81
2023/03/11 08:59:28;;;;;;;4.90;1.20;;;2.30;99.90;;;;;;4981643;28;20160;-80
2023/03/11 09:01:54;;;;;;;5.20;1.40;;;2.40;99.90;;;;;;4996260;28;20037;-80
2023/03/11 09:04:20;;;;;;;3.67;0.90;;;2.40;99.90;;;;;;5014972;28;20026;-81
2023/03/11 09:06:47;;;;;;;5.37;0.90;;;2.60;99.90;;;;;;5014409;28;20503;-81
2023/03/11 09:09:15;;;;;;;6.80;1.20;;;2.60;99.90;;;;;;5014976;28;20029;-81
2023/03/11 09:11:41;;;;;;;7.17;1.10;;;2.80;99.90;;;;;;4996448;28;20026;-81
2023/03/11 09:14:06;;;;;;;2.90;0.77;;;2.80;99.90;;;;;;4996800;28;20113;-82
2023/03/11 09:16:32;;;;;;;4.10;1.13;;;2.80;99.90;;;;;;4996229;28;20041;-81
2023/03/11 09:19:02;;;;;;;5.33;0.70;;;2.90;99.90;;;;;;4997312;28;20448;-81
2023/03/11 09:21:28;;;;;;;5.07;0.60;;;3.00;99.90;;;;;;5014907;28;20489;-80
2023/03/11 09:23:53;;;;;;;3.30;0.80;;;3.10;99.90;;;;;;5015131;28;20069;-81
2023/03/11 09:26:19;;;;;;;2.53;0.70;;;3.20;99.90;;;;;;5014563;28;20054;-81
2023/03/11 09:28:47;;;;;;;3.10;0.57;;;3.30;99.90;;;;;;4996939;28;20173;-81
2023/03/11 09:31:14;;;;;;;3.53;0.90;;;3.20;99.90;;;;;;4965037;28;20025;-80
2023/03/11 09:33:41;;;;;;;3.77;0.77;;;3.40;99.90;;;;;;4995647;28;20033;-81
2023/03/11 09:36:07;;;;;;;3.07;0.90;;;3.60;99.90;;;;;;4996216;28;20045;-82
2023/03/11 09:38:33;;;;;;;4.90;0.77;;;3.70;99.90;;;;;;5013849;28;20422;-81
2023/03/11 09:41:01;;;;;;;2.50;0.70;;;3.90;99.90;;;;;;4980394;28;20026;-81
2023/03/11 09:44:04;;;;;;;4.57;0.80;;;4.00;99.90;;;;;;5013903;28;20374;-81
2023/03/11 09:46:57;;;;;;;5.63;0.70;;;4.30;99.90;;;;;;4996641;28;20030;-81
2023/03/11 09:49:38;;;;;;;2.67;0.80;;;4.50;99.90;;;;;;4996355;28;20022;-81
2023/03/11 09:52:19;;;;;;;2.70;0.50;;;4.60;99.90;;;;;;5013926;28;20038;-81
2023/03/11 09:54:49;;;;;;;4.53;0.60;;;4.90;99.90;;;;;;5014275;28;20053;-81
2023/03/11 09:57:36;;;;;;;3.20;0.77;;;5.10;99.90;;;;;;4996428;28;20026;-81
2023/03/11 10:00:04;;;;;;;3.20;0.57;;;5.30;99.90;;;;;;5013345;28;20068;-81
2023/03/11 10:02:31;;;;;;;6.13;0.60;;;5.50;99.90;;;;;;4996007;28;20033;-82
2023/03/11 10:05:07;;;;;;;2.83;0.60;;;5.70;99.90;;;;;;4974296;28;20034;-81
2023/03/11 10:07:38;;;;;;;5.70;0.90;;;5.80;99.90;;;;;;4996529;28;20026;-81
2023/03/11 10:10:05;;;;;;;3.53;0.70;;;6.10;99.90;;;;;;4996378;28;20033;-82
2023/03/11 10:13:22;;;;;;;6.00;0.80;;;6.30;99.90;;;;;;4994909;28;20018;-81
2023/03/11 10:15:59;;;;;;;3.40;0.50;;;6.70;99.90;;;;;;4936455;29;20031;-81
2023/03/11 10:18:39;;;;;;;1.70;0.40;;;7.30;99.90;;;;;;4937102;29;20065;-80
2023/03/11 10:21:14;;;;;;;1.73;0.90;;;7.70;99.90;;;;;;4991817;28;20045;-81
2023/03/11 10:24:00;;;;;;;2.15;0.50;;;8.40;99.90;;;;;;4996312;28;20084;-81
2023/03/11 10:26:44;;;;;;;0.93;0.25;;;9.10;99.50;;;;;;4995460;28;20397;-82
2023/03/11 10:29:26;;;;;;;2.95;0.40;;;9.70;99.90;;;;;;4995746;28;20091;-83
2023/03/11 10:32:17;;;;;;;3.63;0.30;;;10.50;99.90;;;;;;5013374;28;20026;-81
2023/03/11 10:34:56;;;;;;;3.72;0.50;;;11.10;98.50;;;;;;5012791;28;20057;-82
2023/03/11 10:37:39;;;;;;;4.63;0.40;;;11.70;98.20;;;;;;5013506;28;20030;-81
2023/03/11 10:40:20;;;;;;;2.88;0.40;;;12.20;94.20;;;;;;4995672;28;20034;-81
2023/03/11 10:42:46;;;;;;;2.63;0.30;;;12.60;92.20;;;;;;5011795;28;20046;-81
2023/03/11 10:45:13;;;;;;;4.15;0.40;;;13.00;91.00;;;;;;5013448;28;20029;-82
2023/03/11 10:47:38;;;;;;;4.38;0.52;;;13.10;88.10;;;;;;4995954;28;20081;-81
2023/03/11 10:50:05;;;;;;;4.22;0.70;;;13.40;86.10;;;;;;4979438;28;20536;-81
2023/03/11 10:52:30;;;;;;;4.88;0.50;;;13.70;81.20;;;;;;4995537;28;20355;-81
2023/03/11 10:55:01;;;;;;;3.40;0.40;;;13.60;77.50;;;;;;4996000;28;20485;-80
2023/03/11 10:57:35;;;;;;;6.07;0.60;;;13.40;75.80;;;;;;4995798;28;20034;-81
2023/03/11 11:00:15;;;;;;;2.97;0.47;;;13.20;72.50;;;;;;4995338;28;20033;-80
2023/03/11 11:02:51;;;;;;;4.90;0.40;;;13.10;69.10;;;;;;4995812;28;20026;-81
2023/03/11 11:05:16;;;;;;;1.90;0.30;;;13.10;68.50;;;;;;5012815;28;20034;-81
2023/03/11 11:07:43;;;;;;;4.45;0.40;;;13.20;68.50;;;;;;5013161;28;20109;-81
2023/03/11 11:10:24;;;;;;;2.88;0.30;;;13.30;67.10;;;;;;4994577;28;20041;-81
2023/03/11 11:13:08;;;;;;;1.95;0.28;;;13.20;64.40;;;;;;5012938;28;20018;-81
2023/03/11 11:15:39;;;;;;;;;;;13.20;63.80;;;;;;4995633;28;20397;-81
2023/03/11 11:18:25;;;;;;;2.67;0.30;;;13.40;64.10;;;;;;4995627;28;19960;-81
2023/03/11 11:21:12;;;;;;;2.85;0.50;;;13.80;63.90;;;;;;4995268;28;20045;-82
2023/03/11 11:23:43;;;;;;;1.95;0.38;;;14.60;62.30;;;;;;5013269;28;20034;-81
2023/03/11 11:26:24;;;;;;;2.08;0.30;;;15.20;63.40;;;;;;4999350;28;20026;-82
2023/03/11 11:29:08;;;;;;;1.70;0.30;;;15.90;61.80;;;;;;4999447;28;20022;-81
2023/03/11 11:31:38;;;;;;;4.18;0.40;;;16.60;60.70;;;;;;5016437;28;20030;-81
2023/03/11 11:34:21;;;;;;;2.25;0.30;;;17.10;60.90;;;;;;4994405;28;20055;-81
2023/03/11 11:36:47;;;;;;;5.93;0.40;;;17.70;58.00;;;;;;4979435;28;20189;-81
2023/03/11 11:39:19;;;;;;;1.70;0.38;;;18.10;58.50;;;;;;4963195;28;20533;-81
2023/03/11 11:41:47;;;;;;;3.00;0.35;;;18.80;55.80;;;;;;4978800;28;20089;-81
2023/03/11 11:44:18;;;;;;;3.78;0.63;;;19.40;55.20;;;;;;4997010;28;20022;-81
2023/03/11 11:46:50;;;;;;;1.88;0.40;;;19.80;54.20;;;;;;4996885;28;20023;-81
2023/03/11 11:49:30;;;;;;;4.65;0.50;;;20.00;52.50;;;;;;4997060;28;20471;-80
2023/03/11 11:52:20;;;;;;;4.35;0.65;;;20.20;50.10;;;;;;4979362;28;20033;-80
2023/03/11 11:54:52;;;;;;;4.85;0.47;;;20.50;50.50;;;;;;4979200;28;20030;-81
2023/03/11 11:57:20;;;;;;;5.05;0.57;;;20.90;50.00;;;;;;4979029;28;20027;-81
2023/03/11 11:59:46;;;;;;;3.17;0.40;;;21.20;49.80;;;;;;4996780;28;20042;-81
2023/03/11 12:02:15;;;;;;;3.58;0.45;;;21.40;47.00;;;;;;4978562;28;20022;-80
2023/03/11 12:04:49;;;;;;;3.42;0.50;;;21.40;46.90;;;;;;4996721;28;20045;-81
2023/03/11 12:07:37;;;;;;;2.08;0.50;;;21.50;45.40;;;;;;4996069;28;20105;-81
2023/03/11 12:10:40;;;;;;;2.45;0.40;;;21.70;43.20;;;;;;4996237;28;20383;-80
2023/03/11 12:13:39;;;;;;;1.67;0.30;;;21.70;41.20;;;;;;4996440;28;20130;-81
2023/03/11 12:16:20;;;;;;;3.25;0.30;;;21.60;41.90;;;;;;4977951;28;20032;-80
2023/03/11 12:18:57;;;;;;;2.17;0.38;;;21.90;41.50;;;;;;4978802;28;20166;-81
2023/03/11 12:21:44;;;;;;;6.13;0.35;;;22.10;41.00;;;;;;4978754;28;20078;-81
2023/03/11 12:24:28;;;;;;;2.53;0.40;;;22.10;39.40;;;;;;4978472;28;20033;-81
2023/03/11 12:27:03;;;;;;;4.47;0.52;;;22.10;38.70;;;;;;4996066;28;20031;-81
2023/03/11 12:29:35;;;;;;;2.58;0.30;;;22.10;38.80;;;;;;4978918;28;20029;-81
2023/03/11 12:32:02;;;;;;;2.00;0.30;;;22.20;39.00;;;;;;4995696;28;20387;-81
2023/03/11 12:34:30;;;;;;;2.05;0.30;;;22.40;38.20;;;;;;5004178;28;20038;-81
2023/03/11 12:37:02;;;;;;;1.40;0.20;;;22.50;38.00;;;;;;4996797;28;20041;-81
2023/03/11 12:39:33;;;;;;;3.00;0.40;;;22.80;38.20;;;;;;4997648;28;20038;-81
2023/03/11 12:42:23;;;;;;;1.77;0.32;;;23.00;37.10;;;;;;5015471;28;20393;-81
2023/03/11 12:44:50;;;;;;;2.00;0.30;;;23.00;36.80;;;;;;4988568;28;20041;-80
2023/03/11 12:47:24;;;;;;;3.40;0.35;;;23.20;38.00;;;;;;4997166;28;20374;-81
2023/03/11 12:49:56;;;;;;;2.72;0.40;;;23.30;36.90;;;;;;4977304;28;20459;-80
2023/03/11 12:52:25;;;;;;;2.55;0.40;;;23.40;36.40;;;;;;4978993;28;20389;-81
2023/03/11 12:55:00;;;;;;;2.58;0.30;;;23.50;35.90;;;;;;4996973;28;20489;-81
2023/03/11 12:57:39;;;;;;;1.73;0.30;;;23.70;35.20;;;;;;5014234;28;20041;-78
2023/03/11 13:00:23;;;;;;;3.67;0.30;;;23.70;34.50;;;;;;5014832;28;20474;-79
2023/03/11 13:03:07;;;;;;;2.60;0.45;;;23.80;34.20;;;;;;4997641;28;20470;-80
2023/03/11 13:05:48;;;;;;;2.67;0.40;;;23.70;33.30;;;;;;4997333;28;20021;-80